Terminal Aerodrome Forecast
Issued by NWS Omaha/Valley, NE

Home | Current Version | Previous Version | Text Only | Print | Product List | Glossary On
Versions: 1 2 3 4 5 6 7 8 9 10 11 12 13 14 15 16 17 18
000
FTUS43 KOAX 240820 AAB
TAFOMA
TAF AMD
KOMA 240820Z 2408/2506 VRB08KT P6SM -SHRA SCT050 BKN060 OVC080
      TEMPO 2408/2410 3SM -SHRA BKN040
     FM241000 03015KT P6SM OVC050
      TEMPO 2410/2412 5SM SHRA BKN030
     FM241200 34011KT P6SM OVC050
     FM241600 33015G21KT P6SM OVC050
     FM242000 33012G19KT P6SM SCT250
     FM242300 32005KT P6SM SKC=

USA.gov is the U.S. government's official web portal to all federal, state and local government web resources and services.